CDT,Max TemperatureF,Mean TemperatureF,Min TemperatureF,Max Dew PointF,MeanDew PointF,Min DewpointF,Max Humidity, Mean Humidity, Min Humidity, Max Sea Level PressureIn, Mean Sea Level PressureIn, Min Sea Level PressureIn, Max VisibilityMiles, Mean VisibilityMiles, Min VisibilityMiles, Max Wind SpeedMPH, Mean Wind SpeedMPH, Max Gust SpeedMPH,PrecipitationIn, CloudCover, Events, WindDirDegrees
2012-6-1,82,72,63,55,44,37,75,41,20,29.96,29.94,29.91,10,10,10,9,6,,0.01,3,Rain,315
2012-6-2,90,74,59,66,60,54,93,68,40,30.00,29.92,29.83,10,10,10,10,3,,0.07,4,Rain,220
2012-6-3,93,82,71,70,67,61,84,62,34,29.91,29.86,29.80,10,10,10,13,5,18,0.00,1,,217
2012-6-4,90,80,72,69,65,61,79,60,43,29.89,29.81,29.76,10,10,10,15,4,25,0.00,2,Thunderstorm,284
2012-6-5,93,82,70,68,64,56,87,59,34,29.84,29.78,29.74,10,10,10,16,7,23,0.00,1,,44
2012-6-6,88,74,62,56,53,48,66,45,27,29.99,29.91,29.84,10,10,10,15,8,28,0.00,0,,93
2012-6-7,87,75,64,53,50,46,65,44,26,30.03,29.99,29.95,10,10,10,13,7,20,0.00,0,,88
2012-6-8,90,76,63,56,53,51,70,45,29,30.03,29.96,29.88,10,10,10,12,4,17,0.00,0,,98
2012-6-9,91,80,71,68,61,57,76,54,35,29.91,29.85,29.78,10,10,10,13,5,20,0.00,2,,120
2012-6-10,93,81,71,70,68,63,94,71,39,29.88,29.83,29.77,10,10,4,9,6,,0.00,6,Rain,134
2012-6-11,97,86,73,72,69,65,84,67,41,29.96,29.89,29.83,10,10,9,14,6,21,0.00,2,,152
2012-6-12,89,79,69,70,66,60,94,76,39,30.13,30.05,29.97,10,10,8,12,5,17,0.10,5,Rain-Thunderstorm,75
2012-6-13,89,76,66,68,61,55,94,60,33,30.08,30.01,29.95,10,9,5,13,3,114,0.00,0,,102
2012-6-14,93,77,63,66,61,55,81,55,38,30.02,29.97,29.91,10,10,10,13,4,17,0.00,1,,120
2012-6-15,93,81,69,70,67,62,93,69,36,30.05,30.00,29.93,10,8,0,13,3,28,0.22,3,Fog-Rain-Thunderstorm,111
2012-6-16,93,80,68,70,66,62,93,68,37,30.11,30.04,29.99,10,10,9,9,4,22,0.00,0,,192
2012-6-17,93,81,71,68,65,61,90,60,36,30.08,29.97,29.86,10,10,10,9,2,,0.00,0,,183
2012-6-18,91,82,73,69,65,61,78,60,36,29.94,29.89,29.85,10,10,10,12,5,20,0.00,3,,168
2012-6-19,93,83,73,70,69,65,88,72,41,30.03,29.97,29.92,10,10,10,12,7,18,0.01,5,Rain,177
2012-6-20,91,82,73,71,64,52,90,59,26,30.07,30.01,29.96,10,10,10,14,4,21,0.00,1,,175
2012-6-21,93,80,68,66,63,56,84,55,29,30.09,29.99,29.91,10,10,10,9,4,,0.00,3,,63
2012-6-22,93,82,71,68,65,61,84,56,34,29.96,29.92,29.85,10,10,10,10,2,16,0.00,2,,101
2012-6-23,96,84,73,69,62,57,82,49,29,29.97,29.91,29.86,10,10,9,9,4,,0.00,1,,108
2012-6-24,100,85,70,64,62,59,78,47,27,29.97,29.91,29.84,10,10,10,8,2,,0.00,1,,174
2012-6-25,107,88,71,69,64,59,81,48,23,29.90,29.82,29.72,10,10,10,15,3,21,0.00,1,,164
2012-6-26,98,85,73,67,62,51,60,45,31,29.86,29.82,29.78,10,10,10,16,7,20,0.00,0,,93
2012-6-27,100,80,60,57,51,43,80,40,15,29.97,29.92,29.87,10,10,10,9,2,,0.00,0,,113
2012-6-28,105,85,66,65,59,55,76,43,20,30.04,29.98,29.94,10,10,10,12,2,20,0.00,0,,224
2012-6-29,102,86,73,67,63,59,79,45,25,30.00,29.93,29.86,10,9,7,10,4,17,0.00,0,,243
2012-6-30,100,86,73,68,64,59,76,47,26,29.92,29.88,29.85,10,10,7,9,2,,0.00,0,,207